NCAR-RAP Real-Time Weather Data

Output produced by METARs form (12 August 2020  18:47 UTC)
found at http://weather.rap.ucar.edu/surface/
 
KILG 121839Z 24006KT 10SM TS FEW043 SCT085 29/21 A3002 RMK AO2 LTG DSNT ALQDS TSB33 T02940211 $
KILG 121800Z 19013KT VCTS 28/21 A3001 RMK AO2 LTG DSNT ALQDS T02830211 $
KILG 121751Z A3001 RMK AO2 LTG DSNT ALQDS SLPNO 10317 20267 55005 $
KILG 121741Z A3000 RMK AO2 LTG DSNT ALQDS $
KILG 121721Z 18017KT 10SM VCTS FEW065 31/22 A3001 RMK AO2 LTG DSNT ALQDS T03110222 $
KILG 121651Z 15008KT 10SM CLR 32/24 A3000 RMK AO2 LTG DSNT S SLP159 T03170239
KILG 121551Z 14007KT 10SM CLR 31/24 A3003 RMK AO2 SLP168 T03060244
KILG 121451Z 13003KT 10SM CLR 29/25 A3003 RMK AO2 SLP168 T02940250 52002
KILG 121351Z 00000KT 10SM CLR 28/24 A3002 RMK AO2 SLP164 T02830239
KILG 121308Z AUTO 14003KT 10SM SCT012 28/24 A3003 RMK AO2 T02780239 TSNO
KILG 121251Z AUTO 17003KT 10SM BKN010 27/23 A3003 RMK AO2 CIG 009V013 SLP169 T02720233 TSNO
KILG 121151Z AUTO 00000KT 10SM BKN010 27/23 A3002 RMK AO2 SLP166 60000 T02670228 10267 20244 53013 TSNO
KILG 121051Z AUTO 01003KT 10SM FEW046 25/23 A3001 RMK AO2 SLP161 T02500233 TSNO
KILG 120951Z AUTO 00000KT 10SM CLR 24/23 A2999 RMK AO2 RAE0856 SLP155 P0000 T02440228 TSNO
KILG 120851Z AUTO 22004KT 10SM -RA SCT065 SCT090 25/24 A2999 RMK AO2 RAB24 SLP152 P0000 60000 T02500239 50002
KILG 120751Z AUTO 18003KT 10SM BKN047 26/23 A2999 RMK AO2 LTG DSNT W SLP152 T02560233
KILG 120651Z AUTO 16003KT 10SM SCT055 BKN075 26/23 A2998 RMK AO2 SLP150 T02560233
KILG 120551Z AUTO 18003KT 10SM CLR 26/23 A2998 RMK AO2 SLP150 T02560233 10278 20256 51006
KILG 120451Z AUTO 00000KT 10SM CLR 26/23 A2997 RMK AO2 SLP148 T02610228 403110228
KILG 120351Z AUTO 21005KT 10SM CLR 27/23 A2997 RMK AO2 SLP147 T02670228
KILG 120251Z AUTO 21006KT 10SM CLR 27/23 A2996 RMK AO2 SLP144 T02720228 53010
KILG 120151Z AUTO 15005KT 9SM CLR 27/25 A2995 RMK AO2 SLP141 T02670250
KILG 120051Z AUTO 16007KT 10SM CLR 27/25 A2994 RMK AO2 SLP137 T02720250
KILG 112351Z 16009KT 10SM CLR 28/24 A2993 RMK AO2 SLP134 T02780244 10311 20278 53002
KILG 112251Z 17011KT 10SM CLR 29/24 A2992 RMK AO2 SLP131 T02890239
KILG 112151Z 17012KT 10SM CLR 29/23 A2993 RMK AO2 SLP135 T02940228
KILG 112051Z 16012KT 10SM CLR 30/23 A2993 RMK AO2 SLP132 T03000233 56011